LTBH Airport Information

Runway Information
Runway 04 Length 5905 ft width 98 ft
Elevation 12 ft Threshold 0 ft Heading 41
Runway 22 Length 5905 ft Width 98 ft
Elevation 21 ft Threshold 0 ft Heading 221
Airport Frequencies
Type APP Name YESILKOY A Frequency 122.1 MHZ
Type TWR Name TWR Frequency 123.6 MHZ
Airport Navaids
Type VOR-DME Name Canakkale Frequency 111200 KHZ
Type NDB Name Canakkale Frequency 422 KHZ
Airport Weather Information & NOTAM
ADDS - METARS form results

(2041 UTC 20 July 2019)
Data provider http://aviationweather.gov/metar/data/
 
METAR text: LTBH 201950Z 03007KT CAVOK 24/04 Q1017
Conditions at: LTBH (CANAKKALE , TR) observed 1950 UTC 20 July 2019
Temperature: 24.0°C (75°F)
Dewpoint: 4.0°C (39°F) [RH = 27%]
Pressure (altimeter): 30.03 inches Hg (1017.0 mb)
Winds: from the NNE (30 degrees) at 8 MPH (7 knots; 3.6 m/s)
Visibility: 6 or more miles (10+ km)
Ceiling: ceiling and visibility are OK
Clouds: unknown
Weather: no significant weather observed at this time

Forecast for: LTBH (CANAKKALE , TR)
Text: TAF LTBH 201940Z 2021/2106 05008KT CAVOK
Forecast period: 2100 UTC 20 July 2019 to 0600 UTC 21 July 2019
Forecast type: FROM: standard forecast or significant change
Winds: from the NE (50 degrees) at 9 MPH (8 knots; 4.1 m/s)
Visibility: 6 or more miles 10+ km)
Ceiling: unknown
Clouds: missing
Weather: NSW  (no significant weather)